createdAt,value
2019-05-23T00:01:39.176Z,8.20
2019-05-23T00:04:20.213Z,8.10
2019-05-23T00:06:58.205Z,8.10
2019-05-23T00:09:35.293Z,7.90
2019-05-23T00:12:30.569Z,7.80
2019-05-23T00:15:29.199Z,7.60
2019-05-23T00:18:06.251Z,7.50
2019-05-23T00:20:42.448Z,7.40
2019-05-23T00:23:18.632Z,7.40
2019-05-23T00:25:55.428Z,7.40
2019-05-23T00:28:32.184Z,7.30
2019-05-23T00:31:19.119Z,7.30
2019-05-23T00:33:56.656Z,7.30
2019-05-23T00:36:33.010Z,7.30
2019-05-23T00:39:09.226Z,7.20
2019-05-23T00:41:45.934Z,7.20
2019-05-23T00:44:23.165Z,7.20
2019-05-23T00:46:59.248Z,7.20
2019-05-23T00:49:36.018Z,7.20
2019-05-23T00:52:12.183Z,7.20
2019-05-23T00:54:49.366Z,7.10
2019-05-23T00:57:28.570Z,7.10
2019-05-23T01:00:06.996Z,7.10
2019-05-23T01:02:44.822Z,7.00
2019-05-23T01:05:22.495Z,7.00
2019-05-23T01:07:59.882Z,7.10
2019-05-23T01:10:36.037Z,7.20
2019-05-23T01:13:12.921Z,7.30
2019-05-23T01:15:49.547Z,7.30
2019-05-23T01:18:26.065Z,7.20
2019-05-23T01:21:03.960Z,7.10
2019-05-23T01:23:44.497Z,7.00
2019-05-23T01:26:21.017Z,7.00
2019-05-23T01:28:57.464Z,6.90
2019-05-23T01:31:35.284Z,6.80
2019-05-23T01:34:11.833Z,6.80
2019-05-23T01:36:48.262Z,6.70
2019-05-23T01:39:24.942Z,6.70
2019-05-23T01:42:01.540Z,6.70
2019-05-23T01:44:37.646Z,6.80
2019-05-23T01:47:14.054Z,6.90
2019-05-23T01:49:51.098Z,7.00
2019-05-23T01:52:27.313Z,7.00
2019-05-23T01:55:03.487Z,7.00
2019-05-23T01:57:40.472Z,6.90
2019-05-23T02:00:18.100Z,6.90
2019-05-23T02:02:54.787Z,6.90
2019-05-23T02:05:31.054Z,7.00
2019-05-23T02:08:10.729Z,7.00
2019-05-23T02:10:48.032Z,7.00
2019-05-23T02:13:24.279Z,6.90
2019-05-23T02:16:01.044Z,6.80
2019-05-23T02:18:37.887Z,6.70
2019-05-23T02:21:16.008Z,6.70
2019-05-23T02:23:52.424Z,6.70
2019-05-23T02:26:28.970Z,6.70
2019-05-23T02:29:06.813Z,6.70
2019-05-23T02:31:43.118Z,6.80
2019-05-23T02:34:20.697Z,6.90
2019-05-23T02:36:58.524Z,6.90
2019-05-23T02:39:52.617Z,6.80
2019-05-23T02:42:30.614Z,6.70
2019-05-23T02:45:09.982Z,6.60
2019-05-23T02:47:49.246Z,6.60
2019-05-23T02:50:35.164Z,6.60
2019-05-23T02:53:14.318Z,6.60
2019-05-23T02:55:54.393Z,6.60
2019-05-23T02:58:35.225Z,6.60
2019-05-23T03:01:25.049Z,6.80
2019-05-23T03:04:10.182Z,6.80
2019-05-23T03:06:46.395Z,6.90
2019-05-23T03:09:26.475Z,6.90
2019-05-23T03:12:04.278Z,7.00
2019-05-23T03:14:42.183Z,7.00
2019-05-23T03:17:20.693Z,7.00
2019-05-23T03:20:01.432Z,6.90
2019-05-23T03:22:58.688Z,6.90
2019-05-23T03:25:39.708Z,7.00
2019-05-23T03:28:18.067Z,7.00
2019-05-23T03:31:25.333Z,7.10
2019-05-23T03:33:37.077Z,7.20
2019-05-23T03:36:13.684Z,7.30
2019-05-23T03:38:51.357Z,7.40
2019-05-23T03:41:28.405Z,7.40
2019-05-23T03:44:07.317Z,7.50
2019-05-23T03:46:45.444Z,7.60
2019-05-23T03:49:22.342Z,7.70
2019-05-23T03:51:58.746Z,7.70
2019-05-23T03:54:36.567Z,7.80
2019-05-23T03:57:13.215Z,7.80
2019-05-23T03:59:50.649Z,7.90
2019-05-23T04:02:26.965Z,7.90
2019-05-23T04:05:03.345Z,8.00
2019-05-23T04:07:39.437Z,8.10
2019-05-23T04:10:15.877Z,8.20
2019-05-23T04:12:52.306Z,8.30
2019-05-23T04:15:29.071Z,8.40
2019-05-23T04:18:05.674Z,8.40
2019-05-23T04:20:42.083Z,8.50
2019-05-23T04:23:18.167Z,8.50
2019-05-23T04:25:54.786Z,8.50
2019-05-23T04:28:31.204Z,8.50
2019-05-23T04:31:07.682Z,8.60
2019-05-23T04:33:46.521Z,8.60
2019-05-23T04:36:23.589Z,8.70
2019-05-23T04:39:00.077Z,8.80
2019-05-23T04:41:36.353Z,8.90
2019-05-23T04:44:14.271Z,9.00
2019-05-23T04:46:50.581Z,9.10
2019-05-23T04:49:27.276Z,9.10
2019-05-23T04:52:04.821Z,9.20
2019-05-23T04:54:41.722Z,9.30
2019-05-23T04:57:23.474Z,9.50
2019-05-23T05:00:02.266Z,9.70
2019-05-23T05:02:39.957Z,9.70
2019-05-23T05:05:16.812Z,9.70
2019-05-23T05:07:53.044Z,9.90
2019-05-23T05:10:30.948Z,10.00
2019-05-23T05:13:07.278Z,10.20
2019-05-23T05:15:43.930Z,10.40
2019-05-23T05:18:20.830Z,10.70
2019-05-23T05:20:57.269Z,11.00
2019-05-23T05:23:33.524Z,11.40
2019-05-23T05:26:12.725Z,11.70
2019-05-23T05:28:49.038Z,12.10
2019-05-23T05:31:25.304Z,12.50
2019-05-23T05:34:01.586Z,12.70
2019-05-23T05:36:37.823Z,13.00
2019-05-23T05:39:15.770Z,13.30
2019-05-23T05:41:52.627Z,13.20
2019-05-23T05:44:28.957Z,13.40
2019-05-23T05:47:06.332Z,13.70
2019-05-23T05:49:42.830Z,13.90
2019-05-23T05:52:19.769Z,14.10
2019-05-23T05:54:56.016Z,14.30
2019-05-23T05:57:32.218Z,14.60
2019-05-23T06:00:17.422Z,14.80
2019-05-23T06:03:04.511Z,15.10
2019-05-23T06:05:46.708Z,15.40
2019-05-23T06:08:25.387Z,15.60
2019-05-23T06:11:01.897Z,15.60
2019-05-23T06:13:38.243Z,15.60
2019-05-23T06:16:14.729Z,15.60
2019-05-23T06:18:50.974Z,15.60
2019-05-23T06:21:28.864Z,15.80
2019-05-23T06:24:05.590Z,15.80
2019-05-23T06:26:43.444Z,16.10
2019-05-23T06:29:20.154Z,16.40
2019-05-23T06:31:57.629Z,16.70
2019-05-23T06:34:34.899Z,16.80
2019-05-23T06:37:12.315Z,16.80
2019-05-23T06:39:48.810Z,16.90
2019-05-23T06:42:25.759Z,17.00
2019-05-23T06:45:02.378Z,17.10
2019-05-23T06:47:39.727Z,17.40
2019-05-23T06:50:19.354Z,17.90
2019-05-23T06:52:55.877Z,18.10
2019-05-23T06:55:32.431Z,18.10
2019-05-23T06:58:08.895Z,18.20
2019-05-23T07:00:45.727Z,18.30
2019-05-23T07:03:22.247Z,18.60
2019-05-23T07:05:59.000Z,19.00
2019-05-23T07:08:35.444Z,18.80
2019-05-23T07:11:11.878Z,18.80
2019-05-23T07:13:48.295Z,19.20
2019-05-23T07:16:24.575Z,19.30
2019-05-23T07:19:00.771Z,19.60
2019-05-23T07:21:37.145Z,20.00
2019-05-23T07:24:13.682Z,19.90
2019-05-23T07:26:50.023Z,19.90
2019-05-23T07:29:26.574Z,19.90
2019-05-23T07:32:05.158Z,20.10
2019-05-23T07:34:41.495Z,20.40
2019-05-23T07:37:17.825Z,20.50
2019-05-23T07:39:54.083Z,20.70
2019-05-23T07:42:30.517Z,20.70
2019-05-23T07:45:08.985Z,20.80
2019-05-23T07:47:45.281Z,20.70
2019-05-23T07:50:21.441Z,20.60
2019-05-23T07:52:58.068Z,20.90
2019-05-23T07:55:42.014Z,20.80
2019-05-23T07:58:18.921Z,20.90
2019-05-23T08:01:02.551Z,21.20
2019-05-23T08:03:45.131Z,21.20
2019-05-23T08:06:21.971Z,21.20
2019-05-23T08:08:58.929Z,21.40
2019-05-23T08:11:35.325Z,21.70
2019-05-23T08:14:12.317Z,22.00
2019-05-23T08:16:49.770Z,21.70
2019-05-23T08:19:26.439Z,21.40
2019-05-23T08:22:03.015Z,21.50
2019-05-23T08:24:39.430Z,21.60
2019-05-23T08:27:15.948Z,22.00
2019-05-23T08:29:52.687Z,22.10
2019-05-23T08:32:28.949Z,21.80
2019-05-23T08:35:07.035Z,22.00
2019-05-23T08:37:43.365Z,22.10
2019-05-23T08:40:19.646Z,22.50
2019-05-23T08:42:55.900Z,22.50
2019-05-23T08:45:32.853Z,22.80
2019-05-23T08:48:09.117Z,22.70
2019-05-23T08:50:45.349Z,22.90
2019-05-23T08:53:21.682Z,22.80
2019-05-23T08:55:58.492Z,23.20
2019-05-23T08:58:34.610Z,23.50
2019-05-23T09:01:10.948Z,23.50
2019-05-23T09:03:47.766Z,23.30
2019-05-23T09:06:24.511Z,23.70
2019-05-23T09:09:01.370Z,23.50
2019-05-23T09:11:38.118Z,23.60
2019-05-23T09:14:14.367Z,23.50
2019-05-23T09:16:50.726Z,23.60
2019-05-23T09:19:26.990Z,23.60
2019-05-23T09:22:03.263Z,23.80
2019-05-23T09:24:39.517Z,23.30
2019-05-23T09:27:15.795Z,23.50
2019-05-23T09:29:52.145Z,23.90
2019-05-23T09:32:28.402Z,23.90
2019-05-23T09:35:19.598Z,24.20
2019-05-23T09:37:43.896Z,24.20
2019-05-23T09:40:21.628Z,24.30
2019-05-23T09:42:58.152Z,24.40
2019-05-23T09:45:34.375Z,24.90
2019-05-23T09:48:10.705Z,24.70
2019-05-23T09:50:47.803Z,24.60
2019-05-23T09:53:24.090Z,24.90
2019-05-23T09:56:00.494Z,24.10
2019-05-23T09:58:36.745Z,23.60
2019-05-23T10:01:14.047Z,23.80
2019-05-23T10:03:50.648Z,24.20
2019-05-23T10:06:26.881Z,24.80
2019-05-23T10:09:05.539Z,25.00
2019-05-23T10:11:42.014Z,25.30
2019-05-23T10:14:22.664Z,25.50
2019-05-23T10:16:58.958Z,25.40
2019-05-23T10:19:35.952Z,24.80
2019-05-23T10:22:12.169Z,25.20
2019-05-23T10:24:48.541Z,24.50
2019-05-23T10:27:25.273Z,24.20
2019-05-23T10:30:01.777Z,24.30
2019-05-23T10:32:38.016Z,24.40
2019-05-23T10:35:14.461Z,24.10
2019-05-23T10:37:51.152Z,24.40
2019-05-23T10:40:27.821Z,24.50
2019-05-23T10:43:09.070Z,24.00
2019-05-23T10:45:45.593Z,24.00
2019-05-23T10:48:22.562Z,24.30
2019-05-23T10:50:59.493Z,24.20
2019-05-23T10:53:35.799Z,23.80
2019-05-23T10:56:13.867Z,24.00
2019-05-23T10:58:50.250Z,24.30
2019-05-23T11:01:27.287Z,24.60
2019-05-23T11:04:03.720Z,24.90
2019-05-23T11:06:40.443Z,25.40
2019-05-23T11:09:17.294Z,25.80
2019-05-23T11:11:53.474Z,25.70
2019-05-23T11:14:30.670Z,25.80
2019-05-23T11:17:07.770Z,26.00
2019-05-23T11:19:44.134Z,26.00
2019-05-23T11:22:20.861Z,26.00
2019-05-23T11:24:57.188Z,26.10
2019-05-23T11:27:34.025Z,26.30
2019-05-23T11:30:16.657Z,25.90
2019-05-23T11:32:52.019Z,25.90
2019-05-23T11:35:28.536Z,26.30
2019-05-23T11:38:04.969Z,26.20
2019-05-23T11:40:41.237Z,25.60
2019-05-23T11:43:17.493Z,25.40
2019-05-23T11:45:55.612Z,25.90
2019-05-23T11:48:33.250Z,25.80
2019-05-23T11:51:09.556Z,26.10
2019-05-23T11:54:05.466Z,26.10
2019-05-23T11:56:24.590Z,26.10
2019-05-23T11:59:02.081Z,25.90
2019-05-23T12:01:40.089Z,25.20
2019-05-23T12:04:18.180Z,25.30
2019-05-23T12:06:58.809Z,25.30
2019-05-23T12:09:35.242Z,25.30
2019-05-23T12:12:11.511Z,25.40
2019-05-23T12:14:47.962Z,25.60
2019-05-23T12:17:25.841Z,25.50
2019-05-23T12:20:02.099Z,25.70
2019-05-23T12:22:38.583Z,25.40
2019-05-23T12:25:22.747Z,25.50
2019-05-23T12:27:54.381Z,25.20
2019-05-23T12:30:30.882Z,25.20
2019-05-23T12:33:08.355Z,25.20
2019-05-23T12:35:44.787Z,24.10
2019-05-23T12:38:21.694Z,23.70
2019-05-23T12:41:03.027Z,23.20
2019-05-23T12:43:36.267Z,23.30
2019-05-23T12:46:13.064Z,23.00
2019-05-23T12:48:51.125Z,23.20
2019-05-23T12:51:29.309Z,23.30
2019-05-23T12:54:05.836Z,23.70
2019-05-23T12:56:42.282Z,23.80
2019-05-23T12:59:18.636Z,24.30
2019-05-23T13:01:59.708Z,24.80
2019-05-23T13:04:36.089Z,24.80
2019-05-23T13:07:12.324Z,23.90
2019-05-23T13:09:48.702Z,24.00
2019-05-23T13:12:34.142Z,24.40
2019-05-23T13:15:09.210Z,24.70
2019-05-23T13:17:47.127Z,24.30
2019-05-23T13:20:23.876Z,24.40
2019-05-23T13:23:03.419Z,24.80
2019-05-23T13:25:41.339Z,24.30
2019-05-23T13:28:19.567Z,23.40
2019-05-23T13:30:58.917Z,23.00
2019-05-23T13:33:39.614Z,23.60
2019-05-23T13:36:16.902Z,23.70
2019-05-23T13:38:53.403Z,23.60
2019-05-23T13:41:29.869Z,23.50
2019-05-23T13:44:06.387Z,23.20
2019-05-23T13:46:42.966Z,23.20
2019-05-23T13:49:23.475Z,23.40
2019-05-23T13:52:02.975Z,24.00
2019-05-23T13:54:43.422Z,24.10
2019-05-23T13:57:22.558Z,24.30
2019-05-23T14:00:03.172Z,24.20
2019-05-23T14:02:39.755Z,23.80
2019-05-23T14:05:19.087Z,23.90
2019-05-23T14:08:10.756Z,23.90
2019-05-23T14:10:33.295Z,23.90
2019-05-23T14:13:09.731Z,24.30
2019-05-23T14:15:51.019Z,24.00
2019-05-23T14:18:29.363Z,24.00
2019-05-23T14:21:05.984Z,23.20
2019-05-23T14:23:43.787Z,22.50
2019-05-23T14:26:34.336Z,22.20
2019-05-23T14:29:04.587Z,22.10
2019-05-23T14:36:04.236Z,21.60
2019-05-23T14:38:41.798Z,21.40
2019-05-23T14:41:18.116Z,21.40
2019-05-23T14:43:54.676Z,21.60
2019-05-23T14:46:32.595Z,21.70
2019-05-23T14:49:10.536Z,21.80
2019-05-23T14:51:48.544Z,22.10
2019-05-23T14:54:32.424Z,22.20
2019-05-23T14:57:08.868Z,22.50
2019-05-23T14:59:54.930Z,22.30
2019-05-23T15:02:39.405Z,22.40
2019-05-23T15:05:16.254Z,22.40
2019-05-23T15:07:52.993Z,22.70
2019-05-23T15:10:31.753Z,22.80
2019-05-23T15:13:08.903Z,22.60
2019-05-23T15:15:47.353Z,22.40
2019-05-23T15:18:23.478Z,22.30
2019-05-23T15:24:13.182Z,22.50
2019-05-23T15:26:52.936Z,22.50
2019-05-23T15:29:33.783Z,22.50
2019-05-23T15:32:18.262Z,22.50
2019-05-23T15:35:09.349Z,22.40
2019-05-23T15:37:59.863Z,22.30
2019-05-23T15:40:48.031Z,22.00
2019-05-23T15:43:34.446Z,21.80
2019-05-23T15:46:13.111Z,21.60
2019-05-23T15:48:52.715Z,21.40
2019-05-23T15:51:53.534Z,21.20
2019-05-23T15:54:29.191Z,21.10
2019-05-23T15:57:10.261Z,20.90
2019-05-23T16:00:01.369Z,20.80
2019-05-23T16:02:46.854Z,20.70
2019-05-23T16:05:41.060Z,20.80
2019-05-23T16:08:14.353Z,20.70
2019-05-23T16:10:52.567Z,20.50
2019-05-23T16:13:37.472Z,20.40
2019-05-23T16:16:10.459Z,20.30
2019-05-23T16:18:53.663Z,20.40
2019-05-23T16:21:33.863Z,20.50
2019-05-23T16:24:19.021Z,20.50
2019-05-23T16:26:56.129Z,20.50
2019-05-23T16:30:29.686Z,20.40
2019-05-23T16:33:06.005Z,20.20
2019-05-23T16:35:42.567Z,20.00
2019-05-23T16:38:19.024Z,20.00
2019-05-23T16:40:55.524Z,20.00
2019-05-23T16:43:31.882Z,19.90
2019-05-23T16:46:08.470Z,19.90
2019-05-23T16:48:45.463Z,19.90
2019-05-23T16:51:21.908Z,19.70
2019-05-23T16:53:58.453Z,19.60
2019-05-23T16:56:39.079Z,19.60
2019-05-23T16:59:22.975Z,19.50
2019-05-23T17:02:17.357Z,19.40
2019-05-23T17:05:09.845Z,19.30
2019-05-23T17:07:42.475Z,19.30
2019-05-23T17:10:24.085Z,19.30
2019-05-23T17:13:21.039Z,19.20
2019-05-23T17:16:03.255Z,19.10
2019-05-23T17:19:10.327Z,19.00
2019-05-23T17:22:04.260Z,19.00
2019-05-23T17:24:42.429Z,18.90
2019-05-23T17:27:26.550Z,18.90
2019-05-23T17:30:08.610Z,18.80
2019-05-23T17:32:45.524Z,18.80
2019-05-23T17:35:21.984Z,18.70
2019-05-23T17:37:59.097Z,18.70
2019-05-23T17:40:35.490Z,18.70
2019-05-23T17:43:11.823Z,18.70
2019-05-23T17:45:48.301Z,18.70
2019-05-23T17:48:24.547Z,18.70
2019-05-23T17:51:01.529Z,18.60
2019-05-23T17:53:37.833Z,18.60
2019-05-23T17:56:14.600Z,18.40
2019-05-23T17:58:51.070Z,18.30
2019-05-23T18:01:28.537Z,18.30
2019-05-23T18:04:05.476Z,18.20
2019-05-23T18:06:42.292Z,18.10
2019-05-23T18:09:19.323Z,18.10
2019-05-23T18:11:56.151Z,18.00
2019-05-23T18:14:32.892Z,18.00
2019-05-23T18:17:09.568Z,17.90
2019-05-23T18:19:50.949Z,17.80
2019-05-23T18:22:37.862Z,17.60
2019-05-23T18:25:33.861Z,17.50
2019-05-23T18:28:21.049Z,17.40
2019-05-23T18:31:14.867Z,17.20
2019-05-23T18:33:59.371Z,17.10
2019-05-23T18:36:40.064Z,16.90
2019-05-23T18:39:17.245Z,16.80
2019-05-23T18:41:57.855Z,16.60
2019-05-23T18:44:39.167Z,16.50
2019-05-23T18:47:17.769Z,16.40
2019-05-23T18:50:01.685Z,16.30
2019-05-23T18:53:01.021Z,16.20
2019-05-23T18:55:25.157Z,16.00
2019-05-23T18:58:05.833Z,15.90
2019-05-23T19:00:54.401Z,15.80
2019-05-23T19:03:40.817Z,15.70
2019-05-23T19:06:24.466Z,15.50
2019-05-23T19:09:07.997Z,15.40
2019-05-23T19:11:51.601Z,15.30
2019-05-23T19:14:27.943Z,15.20
2019-05-23T19:17:05.247Z,15.00
2019-05-23T19:19:42.005Z,15.00
2019-05-23T19:22:18.919Z,14.90
2019-05-23T19:24:55.689Z,14.80
2019-05-23T19:27:31.958Z,14.60
2019-05-23T19:30:09.101Z,14.50
2019-05-23T19:32:45.573Z,14.50
2019-05-23T19:35:22.275Z,14.40
2019-05-23T19:37:58.523Z,14.30
2019-05-23T19:40:35.387Z,14.30
2019-05-23T19:43:13.096Z,14.20
2019-05-23T19:45:49.861Z,14.20
2019-05-23T19:48:26.828Z,14.20
2019-05-23T19:51:03.642Z,14.20
2019-05-23T19:53:39.938Z,14.20
2019-05-23T19:56:16.835Z,14.20
2019-05-23T19:58:53.033Z,14.20
2019-05-23T20:01:32.325Z,14.20
2019-05-23T20:04:09.136Z,14.20
2019-05-23T20:06:45.872Z,14.20
2019-05-23T20:09:23.777Z,14.20
2019-05-23T20:12:00.045Z,14.10
2019-05-23T20:14:36.466Z,14.00
2019-05-23T20:17:14.189Z,14.00
2019-05-23T20:19:50.798Z,14.00
2019-05-23T20:22:27.450Z,13.90
2019-05-23T20:25:04.633Z,13.90
2019-05-23T20:27:40.929Z,13.80
2019-05-23T20:30:39.488Z,13.70
2019-05-23T20:33:16.057Z,13.60
2019-05-23T20:35:52.616Z,13.50
2019-05-23T20:38:29.175Z,13.50
2019-05-23T20:41:05.419Z,13.40
2019-05-23T20:43:41.807Z,13.40
2019-05-23T20:46:18.596Z,13.40
2019-05-23T20:48:54.842Z,13.30
2019-05-23T20:51:31.340Z,13.30
2019-05-23T20:54:07.632Z,13.30
2019-05-23T20:56:43.986Z,13.40
2019-05-23T20:59:20.448Z,13.40
2019-05-23T21:01:56.751Z,13.40
2019-05-23T21:04:33.163Z,13.40
2019-05-23T21:07:09.532Z,13.30
2019-05-23T21:09:45.804Z,13.20
2019-05-23T21:12:30.111Z,13.20
2019-05-23T21:15:00.307Z,13.10
2019-05-23T21:17:36.763Z,13.00
2019-05-23T21:20:13.244Z,12.80
2019-05-23T21:22:50.045Z,12.70
2019-05-23T21:25:27.005Z,12.60
2019-05-23T21:28:03.243Z,12.50
2019-05-23T21:30:39.453Z,12.50
2019-05-23T21:33:15.669Z,12.40
2019-05-23T21:35:52.119Z,12.40
2019-05-23T21:38:28.479Z,12.40
2019-05-23T21:41:04.693Z,12.30
2019-05-23T21:43:41.717Z,12.30
2019-05-23T21:46:18.105Z,12.30
2019-05-23T21:48:54.356Z,12.30
2019-05-23T21:51:30.716Z,12.30
2019-05-23T21:54:06.916Z,12.30
2019-05-23T21:56:43.156Z,12.30
2019-05-23T21:59:19.348Z,12.20
2019-05-23T22:02:00.043Z,12.20
2019-05-23T22:04:37.972Z,12.10
2019-05-23T22:07:14.128Z,12.10
2019-05-23T22:09:50.315Z,12.10
2019-05-23T22:12:26.620Z,12.10
2019-05-23T22:15:03.166Z,12.10
2019-05-23T22:17:39.659Z,12.00
2019-05-23T22:20:16.009Z,12.00
2019-05-23T22:22:52.442Z,12.00
2019-05-23T22:25:33.143Z,12.00
2019-05-23T22:28:09.446Z,12.00
2019-05-23T22:30:45.860Z,12.00
2019-05-23T22:33:40.055Z,12.00
2019-05-23T22:36:17.914Z,12.00
2019-05-23T22:38:54.171Z,12.00
2019-05-23T22:41:30.333Z,12.00
2019-05-23T22:44:08.465Z,12.00
2019-05-23T22:46:45.076Z,12.00
2019-05-23T22:49:21.398Z,12.00
2019-05-23T22:51:57.735Z,12.00
2019-05-23T22:54:33.919Z,11.90
2019-05-23T22:57:10.230Z,11.90
2019-05-23T22:59:46.338Z,11.90
2019-05-23T23:02:22.708Z,11.90
2019-05-23T23:04:58.933Z,11.80
2019-05-23T23:07:35.379Z,11.80
2019-05-23T23:10:11.675Z,11.70
2019-05-23T23:12:48.061Z,11.70
2019-05-23T23:15:25.065Z,11.60
2019-05-23T23:18:01.458Z,11.60
2019-05-23T23:20:37.756Z,11.60
2019-05-23T23:23:14.007Z,11.60
2019-05-23T23:25:50.299Z,11.50
2019-05-23T23:28:26.767Z,11.60
2019-05-23T23:31:03.305Z,11.60
2019-05-23T23:33:39.459Z,11.60
2019-05-23T23:36:15.756Z,11.60
2019-05-23T23:38:52.033Z,11.60
2019-05-23T23:41:28.281Z,11.60
2019-05-23T23:44:05.274Z,11.60
2019-05-23T23:46:59.630Z,11.50
2019-05-23T23:49:53.802Z,11.50
2019-05-23T23:52:48.227Z,11.40
2019-05-23T23:55:42.323Z,11.40
2019-05-23T23:58:17.900Z,11.30
